createdAt,value
2018-04-02T00:01:35.470Z,89.00
2018-04-02T00:04:02.962Z,89.00
2018-04-02T00:06:30.504Z,89.10
2018-04-02T00:08:57.942Z,89.20
2018-04-02T00:11:25.364Z,89.20
2018-04-02T00:13:52.876Z,89.20
2018-04-02T00:16:20.355Z,89.30
2018-04-02T00:18:47.787Z,89.90
2018-04-02T00:21:15.230Z,89.30
2018-04-02T00:23:42.699Z,89.30
2018-04-02T00:26:10.164Z,89.30
2018-04-02T00:28:37.614Z,89.30
2018-04-02T00:31:05.045Z,89.40
2018-04-02T00:33:32.486Z,89.40
2018-04-02T00:36:00.694Z,89.00
2018-04-02T00:38:28.129Z,89.50
2018-04-02T00:40:56.356Z,89.50
2018-04-02T00:43:23.900Z,89.50
2018-04-02T00:45:51.353Z,89.40
2018-04-02T00:48:18.769Z,89.50
2018-04-02T00:50:47.000Z,89.70
2018-04-02T00:53:14.428Z,89.50
2018-04-02T00:55:41.853Z,89.60
2018-04-02T00:58:10.061Z,89.50
2018-04-02T01:00:37.537Z,89.50
2018-04-02T01:03:05.000Z,89.40
2018-04-02T01:05:32.481Z,89.50
2018-04-02T01:07:59.890Z,89.60
2018-04-02T01:10:27.377Z,89.70
2018-04-02T01:12:54.925Z,89.60
2018-04-02T01:15:22.396Z,89.70
2018-04-02T01:17:49.828Z,89.70
2018-04-02T01:20:17.264Z,89.80
2018-04-02T01:22:44.697Z,90.00
2018-04-02T01:25:12.132Z,90.00
2018-04-02T01:27:39.580Z,89.60
2018-04-02T01:30:07.036Z,90.00
2018-04-02T01:32:34.484Z,90.00
2018-04-02T01:35:01.957Z,90.00
2018-04-02T01:37:29.364Z,90.00
2018-04-02T01:39:56.862Z,90.00
2018-04-02T01:42:24.323Z,90.00
2018-04-02T01:44:51.752Z,90.00
2018-04-02T01:47:19.232Z,90.00
2018-04-02T01:49:46.698Z,90.00
2018-04-02T01:52:14.127Z,90.10
2018-04-02T01:54:41.601Z,90.10
2018-04-02T01:57:09.042Z,90.10
2018-04-02T01:59:36.518Z,90.10
2018-04-02T02:02:03.965Z,90.10
2018-04-02T02:04:31.415Z,90.10
2018-04-02T02:06:58.829Z,90.10
2018-04-02T02:09:27.063Z,90.50
2018-04-02T02:11:54.624Z,90.20
2018-04-02T02:14:22.063Z,90.20
2018-04-02T02:16:49.542Z,90.20
2018-04-02T02:19:17.092Z,90.20
2018-04-02T02:21:44.556Z,90.20
2018-04-02T02:24:12.029Z,90.20
2018-04-02T02:26:39.478Z,90.60
2018-04-02T02:29:06.932Z,90.20
2018-04-02T02:31:34.388Z,90.20
2018-04-02T02:34:01.829Z,90.20
2018-04-02T02:36:29.264Z,90.20
2018-04-02T02:38:56.700Z,90.20
2018-04-02T02:41:25.034Z,90.20
2018-04-02T02:43:52.581Z,90.20
2018-04-02T02:46:20.016Z,90.30
2018-04-02T02:48:48.373Z,90.30
2018-04-02T02:51:16.570Z,90.40
2018-04-02T02:53:44.026Z,90.40
2018-04-02T02:56:11.505Z,90.40
2018-04-02T02:58:38.967Z,90.40
2018-04-02T03:01:06.391Z,90.40
2018-04-02T03:03:33.829Z,90.40
2018-04-02T03:06:02.053Z,90.40
2018-04-02T03:08:29.489Z,90.40
2018-04-02T03:10:56.970Z,90.40
2018-04-02T03:13:24.438Z,90.40
2018-04-02T03:15:51.883Z,90.40
2018-04-02T03:18:19.332Z,90.40
2018-04-02T03:20:46.759Z,90.40
2018-04-02T03:23:14.974Z,90.40
2018-04-02T03:25:42.432Z,90.40
2018-04-02T03:28:09.884Z,90.40
2018-04-02T03:30:37.324Z,90.40
2018-04-02T03:33:04.813Z,90.40
2018-04-02T03:35:32.289Z,90.40
2018-04-02T03:37:59.820Z,90.40
2018-04-02T03:40:27.270Z,90.40
2018-04-02T03:42:54.700Z,90.40
2018-04-02T03:45:22.128Z,90.40
2018-04-02T03:47:49.565Z,90.40
2018-04-02T03:50:17.005Z,90.40
2018-04-02T03:52:44.454Z,90.70
2018-04-02T03:55:11.947Z,90.40
2018-04-02T03:57:39.485Z,90.40
2018-04-02T04:00:06.965Z,90.40
2018-04-02T04:02:34.349Z,90.50
2018-04-02T04:05:02.564Z,90.50
2018-04-02T04:07:29.996Z,90.50
2018-04-02T04:09:57.435Z,90.50
2018-04-02T04:12:25.657Z,90.50
2018-04-02T04:14:53.157Z,90.50
2018-04-02T04:17:21.384Z,90.60
2018-04-02T04:19:48.844Z,90.60
2018-04-02T04:22:16.298Z,90.60
2018-04-02T04:24:43.747Z,90.60
2018-04-02T04:27:11.204Z,90.60
2018-04-02T04:29:38.673Z,90.70
2018-04-02T04:32:06.136Z,90.70
2018-04-02T04:34:33.576Z,90.70
2018-04-02T04:37:01.046Z,90.70
2018-04-02T04:39:28.500Z,90.70
2018-04-02T04:41:55.932Z,90.70
2018-04-02T04:44:23.427Z,90.80
2018-04-02T04:46:50.871Z,90.80
2018-04-02T04:49:18.329Z,90.80
2018-04-02T04:51:45.762Z,90.80
2018-04-02T04:54:13.248Z,90.80
2018-04-02T04:56:40.713Z,90.80
2018-04-02T04:59:08.168Z,90.90
2018-04-02T05:01:35.605Z,90.90
2018-04-02T05:04:03.053Z,90.90
2018-04-02T05:06:30.534Z,90.90
2018-04-02T05:08:57.980Z,90.90
2018-04-02T05:11:25.401Z,90.90
2018-04-02T05:13:53.601Z,90.90
2018-04-02T05:16:21.036Z,91.00
2018-04-02T05:18:49.240Z,91.00
2018-04-02T05:21:16.700Z,90.90
2018-04-02T05:23:44.131Z,90.90
2018-04-02T05:26:12.336Z,91.00
2018-04-02T05:28:39.897Z,91.00
2018-04-02T05:31:07.320Z,91.00
2018-04-02T05:33:35.625Z,91.00
2018-04-02T05:36:03.056Z,91.00
2018-04-02T05:38:31.367Z,91.00
2018-04-02T05:40:58.824Z,91.00
2018-04-02T05:43:26.228Z,90.90
2018-04-02T05:45:55.179Z,91.00
2018-04-02T05:48:22.618Z,91.00
2018-04-02T05:50:50.028Z,90.90
2018-04-02T05:53:18.261Z,91.30
2018-04-02T05:55:45.688Z,90.90
2018-04-02T05:58:13.132Z,90.90
2018-04-02T06:00:41.355Z,91.00
2018-04-02T06:03:08.795Z,91.00
2018-04-02T06:05:36.227Z,91.00
2018-04-02T06:08:03.684Z,91.00
2018-04-02T06:10:31.915Z,91.00
2018-04-02T06:12:59.462Z,91.00
2018-04-02T06:15:26.918Z,91.00
2018-04-02T06:17:54.346Z,91.10
2018-04-02T06:20:21.776Z,91.00
2018-04-02T06:22:49.976Z,91.10
2018-04-02T06:25:17.404Z,91.10
2018-04-02T06:27:45.607Z,91.10
2018-04-02T06:30:13.052Z,91.10
2018-04-02T06:32:41.275Z,91.10
2018-04-02T06:35:08.716Z,91.10
2018-04-02T06:37:36.165Z,91.10
2018-04-02T06:40:03.680Z,91.20
2018-04-02T06:42:32.036Z,91.30
2018-04-02T06:44:59.587Z,91.10
2018-04-02T06:47:27.028Z,91.10
2018-04-02T06:49:54.508Z,91.10
2018-04-02T06:52:22.053Z,91.10
2018-04-02T06:54:49.524Z,91.10
2018-04-02T06:57:17.070Z,91.10
2018-04-02T06:59:44.612Z,91.00
2018-04-02T07:02:12.072Z,91.00
2018-04-02T07:04:39.541Z,91.00
2018-04-02T07:07:07.007Z,91.00
2018-04-02T07:09:34.613Z,90.90
2018-04-02T07:12:01.989Z,90.80
2018-04-02T07:14:29.465Z,90.90
2018-04-02T07:16:56.934Z,90.90
2018-04-02T07:19:24.356Z,90.80
2018-04-02T07:21:51.841Z,90.80
2018-04-02T07:24:19.302Z,90.80
2018-04-02T07:26:46.766Z,90.90
2018-04-02T07:29:14.216Z,90.80
2018-04-02T07:31:41.685Z,90.90
2018-04-02T07:34:09.231Z,90.80
2018-04-02T07:36:36.689Z,90.80
2018-04-02T07:39:04.111Z,90.80
2018-04-02T07:41:31.552Z,90.70
2018-04-02T07:43:59.772Z,90.70
2018-04-02T07:46:27.225Z,90.70
2018-04-02T07:48:54.653Z,90.60
2018-04-02T07:51:22.995Z,90.50
2018-04-02T07:53:50.401Z,90.50
2018-04-02T07:56:17.857Z,90.40
2018-04-02T07:58:46.152Z,90.40
2018-04-02T08:01:13.711Z,90.40
2018-04-02T08:03:41.176Z,90.40
2018-04-02T08:06:08.649Z,90.50
2018-04-02T08:08:36.138Z,90.50
2018-04-02T08:11:03.647Z,90.40
2018-04-02T08:13:31.097Z,90.40
2018-04-02T08:15:58.563Z,90.40
2018-04-02T08:18:26.063Z,90.40
2018-04-02T08:20:53.514Z,90.40
2018-04-02T08:23:20.936Z,90.30
2018-04-02T08:25:48.400Z,90.20
2018-04-02T08:28:15.879Z,90.10
2018-04-02T08:30:43.285Z,90.10
2018-04-02T08:33:10.715Z,90.00
2018-04-02T08:35:38.916Z,89.00
2018-04-02T08:38:06.361Z,88.90
2018-04-02T08:40:34.552Z,88.40
2018-04-02T08:43:01.996Z,88.50
2018-04-02T08:45:30.261Z,88.50
2018-04-02T08:47:58.492Z,88.60
2018-04-02T08:50:25.927Z,88.60
2018-04-02T08:52:53.382Z,88.60
2018-04-02T08:55:20.840Z,88.60
2018-04-02T08:57:48.297Z,88.80
2018-04-02T09:00:15.717Z,88.90
2018-04-02T09:02:43.957Z,88.70
2018-04-02T09:05:11.414Z,88.60
2018-04-02T09:07:38.850Z,88.30
2018-04-02T09:10:06.301Z,88.30
2018-04-02T09:12:33.781Z,88.00
2018-04-02T09:15:01.216Z,88.00
2018-04-02T09:17:28.661Z,88.10
2018-04-02T09:19:56.133Z,88.20
2018-04-02T09:22:23.619Z,87.90
2018-04-02T09:24:51.066Z,88.00
2018-04-02T09:27:18.512Z,87.90
2018-04-02T09:29:46.878Z,87.60
2018-04-02T09:32:14.318Z,87.30
2018-04-02T09:34:41.900Z,88.10
2018-04-02T09:37:09.350Z,87.10
2018-04-02T09:39:37.017Z,87.00
2018-04-02T09:42:04.535Z,86.90
2018-04-02T09:44:32.764Z,87.00
2018-04-02T09:47:00.196Z,87.00
2018-04-02T09:49:27.683Z,86.80
2018-04-02T09:51:55.132Z,86.30
2018-04-02T09:54:22.566Z,85.50
2018-04-02T09:56:50.025Z,85.20
2018-04-02T09:59:17.502Z,84.70
2018-04-02T10:01:45.696Z,84.60
2018-04-02T10:04:13.140Z,84.60
2018-04-02T10:06:40.576Z,84.60
2018-04-02T10:09:08.021Z,84.50
2018-04-02T10:11:35.534Z,84.50
2018-04-02T10:14:03.878Z,84.70
2018-04-02T10:16:31.480Z,84.70
2018-04-02T10:18:59.084Z,84.50
2018-04-02T10:21:26.519Z,84.40
2018-04-02T10:23:54.722Z,84.30
2018-04-02T10:26:22.182Z,84.20
2018-04-02T10:28:49.624Z,84.20
2018-04-02T10:31:17.070Z,83.60
2018-04-02T10:33:45.312Z,83.90
2018-04-02T10:36:13.518Z,83.00
2018-04-02T10:38:41.740Z,83.30
2018-04-02T10:41:09.208Z,83.30
2018-04-02T10:43:36.642Z,83.20
2018-04-02T10:46:07.188Z,83.00
2018-04-02T10:48:34.965Z,82.50
2018-04-02T10:51:02.350Z,81.70
2018-04-02T10:53:30.572Z,80.90
2018-04-02T10:55:58.037Z,80.80
2018-04-02T10:58:25.476Z,80.70
2018-04-02T11:00:52.919Z,80.40
2018-04-02T11:03:20.372Z,80.40
2018-04-02T11:05:47.829Z,80.10
2018-04-02T11:08:16.001Z,79.50
2018-04-02T11:10:43.452Z,79.50
2018-04-02T11:13:10.987Z,79.10
2018-04-02T11:15:38.420Z,79.10
2018-04-02T11:18:06.058Z,78.50
2018-04-02T11:20:33.496Z,78.80
2018-04-02T11:23:00.985Z,78.40
2018-04-02T11:25:28.432Z,77.60
2018-04-02T11:27:55.868Z,77.70
2018-04-02T11:30:23.314Z,77.70
2018-04-02T11:32:51.524Z,76.90
2018-04-02T11:35:18.969Z,77.00
2018-04-02T11:37:46.472Z,76.60
2018-04-02T11:40:14.000Z,76.50
2018-04-02T11:42:41.452Z,76.40
2018-04-02T11:45:08.920Z,76.30
2018-04-02T11:47:36.364Z,76.30
2018-04-02T11:50:03.869Z,76.30
2018-04-02T11:52:31.422Z,76.40
2018-04-02T11:54:58.884Z,76.40
2018-04-02T11:57:26.408Z,76.60
2018-04-02T11:59:53.853Z,76.90
2018-04-02T12:02:21.301Z,76.90
2018-04-02T12:04:48.758Z,77.10
2018-04-02T12:07:16.232Z,77.20
2018-04-02T12:09:43.757Z,77.20
2018-04-02T12:12:11.961Z,77.60
2018-04-02T12:14:40.179Z,77.30
2018-04-02T12:17:07.705Z,77.30
2018-04-02T12:19:35.132Z,77.20
2018-04-02T12:22:02.578Z,77.20
2018-04-02T12:24:30.941Z,77.60
2018-04-02T12:26:58.375Z,77.50
2018-04-02T12:29:25.814Z,77.10
2018-04-02T12:31:53.382Z,77.10
2018-04-02T12:34:20.813Z,77.00
2018-04-02T12:36:48.254Z,76.80
2018-04-02T12:39:15.746Z,77.00
2018-04-02T12:41:43.271Z,77.20
2018-04-02T12:44:11.469Z,77.10
2018-04-02T12:46:38.932Z,77.10
2018-04-02T12:49:06.401Z,76.80
2018-04-02T12:51:33.836Z,76.70
2018-04-02T12:54:01.273Z,76.30
2018-04-02T12:56:28.718Z,76.20
2018-04-02T12:58:56.930Z,75.20
2018-04-02T13:01:24.365Z,75.10
2018-04-02T13:03:51.810Z,74.80
2018-04-02T13:06:20.060Z,74.40
2018-04-02T13:08:47.505Z,74.40
2018-04-02T13:11:14.946Z,74.10
2018-04-02T13:13:42.405Z,74.20
2018-04-02T13:16:09.906Z,73.50
2018-04-02T13:18:38.121Z,72.30
2018-04-02T13:21:05.545Z,72.30
2018-04-02T13:23:33.856Z,71.90
2018-04-02T13:26:01.322Z,71.90
2018-04-02T13:28:28.732Z,71.70
2018-04-02T13:30:57.017Z,70.90
2018-04-02T13:33:25.242Z,70.80
2018-04-02T13:35:52.660Z,70.70
2018-04-02T13:38:20.108Z,70.50
2018-04-02T13:40:48.308Z,69.50
2018-04-02T13:43:15.753Z,69.40
2018-04-02T13:45:43.205Z,69.40
2018-04-02T13:48:10.669Z,69.20
2018-04-02T13:50:38.104Z,68.90
2018-04-02T13:53:06.436Z,68.60
2018-04-02T13:55:33.854Z,68.60
2018-04-02T13:58:01.289Z,69.00
2018-04-02T14:00:29.508Z,68.40
2018-04-02T14:02:56.966Z,68.40
2018-04-02T14:05:24.424Z,67.60
2018-04-02T14:07:51.872Z,66.50
2018-04-02T14:10:19.305Z,66.00
2018-04-02T14:12:46.924Z,65.70
2018-04-02T14:15:17.174Z,65.60
2018-04-02T14:17:44.792Z,65.80
2018-04-02T14:20:12.276Z,66.10
2018-04-02T14:22:39.996Z,66.20
2018-04-02T14:25:07.425Z,66.20
2018-04-02T14:27:35.646Z,66.40
2018-04-02T14:30:03.216Z,66.40
2018-04-02T14:32:30.674Z,66.60
2018-04-02T14:34:59.149Z,67.00
2018-04-02T14:37:26.592Z,67.20
2018-04-02T14:39:54.057Z,67.30
2018-04-02T14:42:21.525Z,67.30
2018-04-02T14:44:48.972Z,67.30
2018-04-02T14:47:16.441Z,67.10
2018-04-02T14:49:44.894Z,67.20
2018-04-02T14:52:13.100Z,67.20
2018-04-02T14:54:40.589Z,66.50
2018-04-02T14:57:08.798Z,65.90
2018-04-02T14:59:36.232Z,65.80
2018-04-02T15:02:03.712Z,65.20
2018-04-02T15:04:31.137Z,63.60
2018-04-02T15:06:59.425Z,62.10
2018-04-02T15:09:26.872Z,62.00
2018-04-02T15:11:55.111Z,61.30
2018-04-02T15:14:22.662Z,61.30
2018-04-02T15:16:50.090Z,61.30
2018-04-02T15:19:17.569Z,61.60
2018-04-02T15:21:45.021Z,61.30
2018-04-02T15:24:12.460Z,61.10
2018-04-02T15:26:39.882Z,61.00
2018-04-02T15:29:08.116Z,61.30
2018-04-02T15:31:35.570Z,61.30
2018-04-02T15:34:03.048Z,62.40
2018-04-02T15:36:30.480Z,62.10
2018-04-02T15:38:57.920Z,61.80
2018-04-02T15:41:25.352Z,61.70
2018-04-02T15:43:53.553Z,60.80
2018-04-02T15:46:20.999Z,60.80
2018-04-02T15:48:48.482Z,60.50
2018-04-02T15:51:16.717Z,60.40
2018-04-02T15:53:44.223Z,60.40
2018-04-02T15:56:11.652Z,59.70
2018-04-02T15:58:39.092Z,59.70
2018-04-02T16:01:06.609Z,59.70
2018-04-02T16:03:34.070Z,59.40
2018-04-02T16:06:01.600Z,59.10
2018-04-02T16:08:29.105Z,59.60
2018-04-02T16:10:56.650Z,60.00
2018-04-02T16:13:24.115Z,60.20
2018-04-02T16:15:51.562Z,60.30
2018-04-02T16:18:19.036Z,60.40
2018-04-02T16:20:46.548Z,60.40
2018-04-02T16:23:13.992Z,60.20
2018-04-02T16:25:41.486Z,60.00
2018-04-02T16:28:08.988Z,59.80
2018-04-02T16:30:37.189Z,60.40
2018-04-02T16:33:04.651Z,60.40
2018-04-02T16:35:32.125Z,60.50
2018-04-02T16:37:59.604Z,60.30
2018-04-02T16:40:27.062Z,60.30
2018-04-02T16:42:54.534Z,60.50
2018-04-02T16:45:22.057Z,60.50
2018-04-02T16:47:49.507Z,60.50
2018-04-02T16:50:16.973Z,60.60
2018-04-02T16:52:44.475Z,60.70
2018-04-02T16:55:11.872Z,60.70
2018-04-02T16:57:39.304Z,60.90
2018-04-02T17:00:06.761Z,61.20
2018-04-02T17:02:34.404Z,61.60
2018-04-02T17:05:02.444Z,61.60
2018-04-02T17:07:29.857Z,61.60
2018-04-02T17:09:57.338Z,62.00
2018-04-02T17:12:24.793Z,62.30
2018-04-02T17:14:52.229Z,62.50
2018-04-02T17:17:20.444Z,63.00
2018-04-02T17:19:47.892Z,63.00
2018-04-02T17:22:15.340Z,63.40
2018-04-02T17:24:42.770Z,63.80
2018-04-02T17:27:10.224Z,64.00
2018-04-02T17:29:37.677Z,64.20
2018-04-02T17:32:05.097Z,64.40
2018-04-02T17:34:33.320Z,65.00
2018-04-02T17:37:00.752Z,65.00
2018-04-02T17:39:28.212Z,65.20
2018-04-02T17:41:55.654Z,65.50
2018-04-02T17:44:23.996Z,65.90
2018-04-02T17:46:51.436Z,65.90
2018-04-02T17:49:18.924Z,66.10
2018-04-02T17:51:47.144Z,66.10
2018-04-02T17:54:14.615Z,66.60
2018-04-02T17:56:42.120Z,66.90
2018-04-02T17:59:09.505Z,67.00
2018-04-02T18:01:36.941Z,67.20
2018-04-02T18:04:05.148Z,67.70
2018-04-02T18:06:32.607Z,67.80
2018-04-02T18:09:00.069Z,67.80
2018-04-02T18:11:27.552Z,68.10
2018-04-02T18:13:55.057Z,68.30
2018-04-02T18:16:22.488Z,68.70
2018-04-02T18:18:49.929Z,69.20
2018-04-02T18:21:17.367Z,69.50
2018-04-02T18:23:44.813Z,70.00
2018-04-02T18:26:12.253Z,70.40
2018-04-02T18:28:39.679Z,70.80
2018-04-02T18:31:07.904Z,71.50
2018-04-02T18:33:35.343Z,71.50
2018-04-02T18:36:02.798Z,71.80
2018-04-02T18:38:30.968Z,72.70
2018-04-02T18:40:58.407Z,72.60
2018-04-02T18:43:26.633Z,73.40
2018-04-02T18:45:54.059Z,73.40
2018-04-02T18:48:21.504Z,73.90
2018-04-02T18:50:49.751Z,74.90
2018-04-02T18:53:18.166Z,74.90
2018-04-02T18:55:45.620Z,75.40
2018-04-02T18:58:13.094Z,75.70
2018-04-02T19:00:40.489Z,77.10
2018-04-02T19:03:07.928Z,76.90
2018-04-02T19:05:35.360Z,77.70
2018-04-02T19:08:02.849Z,78.30
2018-04-02T19:10:30.292Z,78.90
2018-04-02T19:12:57.737Z,79.50
2018-04-02T19:15:25.166Z,80.10
2018-04-02T19:17:53.384Z,81.20
2018-04-02T19:20:20.830Z,81.10
2018-04-02T19:22:48.247Z,81.60
2018-04-02T19:25:15.708Z,82.00
2018-04-02T19:27:43.938Z,82.10
2018-04-02T19:30:11.419Z,82.70
2018-04-02T19:32:38.860Z,82.90
2018-04-02T19:35:06.302Z,83.30
2018-04-02T19:37:33.738Z,83.50
2018-04-02T19:40:01.184Z,83.80
2018-04-02T19:42:28.628Z,84.00
2018-04-02T19:44:56.828Z,84.40
2018-04-02T19:47:24.269Z,84.40
2018-04-02T19:49:51.825Z,84.60
2018-04-02T19:52:19.207Z,84.80
2018-04-02T19:54:46.648Z,85.00
2018-04-02T19:57:14.093Z,85.10
2018-04-02T19:59:42.296Z,85.30
2018-04-02T20:02:09.798Z,85.30
2018-04-02T20:04:38.785Z,85.80
2018-04-02T20:07:06.325Z,86.50
2018-04-02T20:09:33.816Z,85.90
2018-04-02T20:12:01.255Z,86.10
2018-04-02T20:14:28.705Z,86.40
2018-04-02T20:16:56.188Z,86.50
2018-04-02T20:19:23.673Z,86.70
2018-04-02T20:21:51.879Z,87.10
2018-04-02T20:24:19.326Z,87.10
2018-04-02T20:26:46.753Z,87.20
2018-04-02T20:29:14.976Z,87.60
2018-04-02T20:31:42.426Z,87.60
2018-04-02T20:34:09.886Z,87.70
2018-04-02T20:36:37.325Z,87.80
2018-04-02T20:39:06.576Z,88.00
2018-04-02T20:41:34.110Z,88.20
2018-04-02T20:44:01.648Z,88.50
2018-04-02T20:46:29.089Z,88.50
2018-04-02T20:48:56.518Z,88.60
2018-04-02T20:51:24.786Z,89.40
2018-04-02T20:53:52.244Z,88.80
2018-04-02T20:56:20.445Z,88.90
2018-04-02T20:58:47.897Z,88.90
2018-04-02T21:01:16.101Z,88.90
2018-04-02T21:03:43.676Z,88.90
2018-04-02T21:06:11.192Z,89.00
2018-04-02T21:08:38.643Z,89.00
2018-04-02T21:11:06.088Z,89.00
2018-04-02T21:13:33.521Z,89.10
2018-04-02T21:16:01.029Z,89.10
2018-04-02T21:18:28.484Z,89.20
2018-04-02T21:20:55.924Z,89.30
2018-04-02T21:23:23.374Z,89.40
2018-04-02T21:25:50.804Z,89.50
2018-04-02T21:28:18.305Z,89.50
2018-04-02T21:30:45.861Z,89.60
2018-04-02T21:33:13.302Z,89.70
2018-04-02T21:35:40.724Z,89.70
2018-04-02T21:38:08.936Z,90.00
2018-04-02T21:40:36.414Z,90.00
2018-04-02T21:43:03.963Z,90.00
2018-04-02T21:45:31.461Z,90.00
2018-04-02T21:47:58.920Z,90.00
2018-04-02T21:50:26.441Z,90.10
2018-04-02T21:52:54.024Z,90.10
2018-04-02T21:55:21.476Z,90.10
2018-04-02T21:57:48.925Z,90.10
2018-04-02T22:00:16.381Z,90.20
2018-04-02T22:02:43.843Z,90.20
2018-04-02T22:05:11.269Z,90.20
2018-04-02T22:07:38.716Z,90.20
2018-04-02T22:10:06.201Z,90.20
2018-04-02T22:12:33.679Z,90.20
2018-04-02T22:15:01.233Z,90.20
2018-04-02T22:17:28.740Z,90.10
2018-04-02T22:19:56.948Z,90.10
2018-04-02T22:22:24.392Z,90.10
2018-04-02T22:24:51.878Z,90.10
2018-04-02T22:27:19.330Z,90.00
2018-04-02T22:29:46.773Z,90.00
2018-04-02T22:32:14.212Z,90.00
2018-04-02T22:34:41.702Z,90.00
2018-04-02T22:37:09.190Z,90.00
2018-04-02T22:39:36.609Z,90.00
2018-04-02T22:42:04.068Z,90.00
2018-04-02T22:44:31.521Z,90.00
2018-04-02T22:46:58.996Z,90.00
2018-04-02T22:49:26.431Z,90.10
2018-04-02T22:51:53.873Z,90.10
2018-04-02T22:54:21.320Z,90.10
2018-04-02T22:56:49.545Z,90.20
2018-04-02T22:59:17.093Z,90.20
2018-04-02T23:01:44.547Z,90.30
2018-04-02T23:04:12.103Z,90.40
2018-04-02T23:06:39.538Z,90.50
2018-04-02T23:09:07.028Z,90.60
2018-04-02T23:11:34.463Z,90.70
2018-04-02T23:14:01.940Z,90.80
2018-04-02T23:16:29.420Z,90.90
2018-04-02T23:18:57.096Z,91.00
2018-04-02T23:21:24.636Z,91.10
2018-04-02T23:23:52.079Z,91.20
2018-04-02T23:26:19.521Z,91.20
2018-04-02T23:28:46.975Z,91.30
2018-04-02T23:31:14.437Z,91.40
2018-04-02T23:33:41.910Z,91.40
2018-04-02T23:36:09.489Z,91.40
2018-04-02T23:38:37.030Z,91.40
2018-04-02T23:41:04.472Z,91.50
2018-04-02T23:43:31.916Z,91.50
2018-04-02T23:45:59.400Z,91.50
2018-04-02T23:48:26.832Z,91.60
2018-04-02T23:50:54.289Z,91.60
2018-04-02T23:53:21.769Z,91.60
2018-04-02T23:55:49.230Z,91.70
2018-04-02T23:58:16.694Z,91.70
